Frontier Oasis — 3FLC2 — position and weather

sailwx.info

Track history (hours):
 
Tides and Currents Weather Stations Pressure Air Temp Water Temp Dewpoint Dewpoint Depression Visibility Wind Speed Wind Dir Waves Ship Positions

Frontier Oasis

Last reported at 2014-Sep-06 06:14 UTC. Time now 2014-Sep-21 06:11 UTC.
Position N 31°50' E 120°51'.
Warning: this ship's position is 14 days out of date.

Length 292 m; draft 10.7 m.

Type: Cargo ship. MMSI: 371910000.

Date/timePositionNaut miles runAvg speedWind from/ knotsBaromVisibWave heightAir tempDewpointWater temp
2014-Sep-06 06:14N 31°50' E 120°51'0 0.0
2014-Sep-06 05:32N 31°50' E 120°51'0 0.0
2014-Sep-06 04:32N 31°50' E 120°51'0 0.0
2014-Sep-06 03:26N 31°50' E 120°51'0 0.0
2014-Sep-06 02:32N 31°50' E 120°51'0 0.0
2014-Sep-06 01:32N 31°50' E 120°51'0 0.0
2014-Sep-06 00:32N 31°50' E 120°51'0 0.0
2014-Sep-05 23:32N 31°50' E 120°51'0 0.0
2014-Sep-05 22:29N 31°50' E 120°51'0 0.0
2014-Sep-05 21:32N 31°50' E 120°51'0 0.0
2014-Sep-05 20:32N 31°50' E 120°51'0 0.0
2014-Sep-05 19:33N 31°50' E 120°51'0 0.0
2014-Sep-05 18:26N 31°50' E 120°51'0 0.0
2014-Sep-05 17:29N 31°50' E 120°51'0 0.0
2014-Sep-05 16:32N 31°50' E 120°51'0 0.0
2014-Sep-05 15:32N 31°50' E 120°51'0 0.0
2014-Sep-05 14:29N 31°50' E 120°51'0 0.0
2014-Sep-05 13:33N 31°50' E 120°51'0 0.0
2014-Sep-05 12:32N 31°50' E 120°51'0 0.0
2014-Sep-05 11:29N 31°50' E 120°51'0 0.0
2014-Sep-05 10:32N 31°50' E 120°51'0 0.0
2014-Sep-05 09:32N 31°50' E 120°51'0 0.0
2014-Sep-05 08:32N 31°50' E 120°51'0 0.0
2014-Sep-05 07:32N 31°50' E 120°51'0 0.0
2014-Sep-05 06:33N 31°50' E 120°51'0 0.0
2014-Sep-05 05:29N 31°50' E 120°51'1 1.5
2014-Sep-05 04:33N 31°49' E 120°52'9 8.0
2014-Sep-05 03:26N 31°46' E 121°02'1011.0
2014-Sep-05 02:33N 31°41' E 121°11'1312.6
2014-Sep-05 01:32N 31°32' E 121°22'1010.4
2014-Sep-05 00:33N 31°25' E 121°31'1010.3
2014-Sep-04 23:33N 31°20' E 121°42'10 9.9
2014-Sep-04 22:33N 31°16' E 121°52'1110.2
2014-Sep-04 21:28N 31°14' E 122°05'10 8.5
2014-Sep-04 20:19N 31°09' E 122°14'18 1.2
2014-Sep-04 05:09N 31°12' E 122°35'0 0.0
2014-Sep-04 04:33N 31°12' E 122°35'7 0.5
2014-Sep-03 15:26N 31°05' E 122°34'1212.2
2014-Sep-03 14:29N 30°54' E 122°33'1011.2
2014-Sep-03 13:34N 30°44' E 122°37'8 7.7
2014-Sep-03 12:34N 30°37' E 122°32'7 6.9
2014-Sep-03 11:33N 30°40' E 122°25'0 0.0
2014-Sep-03 10:31N 30°40' E 122°25'0 0.0
2014-Sep-03 09:31N 30°40' E 122°25'0 0.0
2014-Sep-03 08:31N 30°40' E 122°25'0 0.0
2014-Sep-03 07:31N 30°40' E 122°25'0 0.0
2014-Sep-03 06:31N 30°40' E 122°25'0 0.0
2014-Sep-03 05:25N 30°40' E 122°25'0 0.1
2014-Sep-03 04:31N 30°40' E 122°25'0 0.0
2014-Sep-03 03:31N 30°40' E 122°25'0 0.0
2014-Sep-03 02:31N 30°40' E 122°25'0 0.0
2014-Sep-03 01:25N 30°40' E 122°25'0 0.0
2014-Sep-03 00:31N 30°40' E 122°25'0 0.0
2014-Sep-02 23:31N 30°40' E 122°25'0 0.0
2014-Sep-02 22:25N 30°40' E 122°25'0 0.0
2014-Sep-02 21:19N 30°40' E 122°25'0 0.0
2014-Sep-02 20:31N 30°40' E 122°25'0 0.0
2014-Sep-02 19:31N 30°40' E 122°25'0 0.0
2014-Sep-02 18:31N 30°40' E 122°25'0 0.0
2014-Sep-02 17:07N 30°40' E 122°25'0 0.0
2014-Sep-02 16:31N 30°40' E 122°25'0 0.0
2014-Sep-02 15:31N 30°40' E 122°25'0 0.0
2014-Sep-02 14:31N 30°40' E 122°25'0 0.0
2014-Sep-02 13:31N 30°40' E 122°25'0 0.0
2014-Sep-02 12:07N 30°40' E 122°25'0 0.0
2014-Sep-02 11:19N 30°40' E 122°25'0 0.0
2014-Sep-02 10:19N 30°40' E 122°25'0 0.0
2014-Sep-02 09:19N 30°40' E 122°25'0 0.0
2014-Sep-02 08:25N 30°40' E 122°25'0 0.0
2014-Sep-02 07:31N 30°40' E 122°25'0 0.0
2014-Sep-02 06:25N 30°40' E 122°25'0 0.0
2014-Sep-02 05:31N 30°40' E 122°25'0 0.0
2014-Sep-02 04:31N 30°40' E 122°25'0 0.0
2014-Sep-02 03:25N 30°40' E 122°25'0 0.0
2014-Sep-02 02:31N 30°40' E 122°25'0 0.0
2014-Sep-02 01:25N 30°40' E 122°25'0 0.0
2014-Sep-02 00:19N 30°40' E 122°25'0 0.0
2014-Sep-01 23:19N 30°40' E 122°25'0 0.0
2014-Sep-01 22:13N 30°40' E 122°25'0 0.0
2014-Sep-01 21:25N 30°40' E 122°25'0 0.0
2014-Sep-01 20:31N 30°40' E 122°25'0 0.0
2014-Sep-01 19:31N 30°40' E 122°25'0 0.0
2014-Sep-01 18:25N 30°40' E 122°25'0 0.0
2014-Sep-01 17:31N 30°40' E 122°25'0 0.0
2014-Sep-01 16:31N 30°40' E 122°25'0 0.0
2014-Sep-01 15:31N 30°40' E 122°25'0 0.0
2014-Sep-01 14:25N 30°40' E 122°25'0 0.0
2014-Sep-01 13:25N 30°40' E 122°25'0 0.0
2014-Sep-01 12:31N 30°40' E 122°25'0 0.0
2014-Sep-01 11:31N 30°40' E 122°25'0 0.0
2014-Sep-01 10:25N 30°40' E 122°25'0 0.0
2014-Sep-01 09:25N 30°40' E 122°25'0 0.0
2014-Sep-01 08:33N 30°40' E 122°25'1 0.9
2014-Sep-01 07:32N 30°40' E 122°26'5 4.6
2014-Sep-01 06:33N 30°37' E 122°30'2 2.2
2014-Sep-01 05:30N 30°37' E 122°33'0 0.1
2014-Sep-01 04:30N 30°37' E 122°33'0 0.1
2014-Sep-01 03:24N 30°37' E 122°33'0 0.1
2014-Sep-01 02:30N 30°37' E 122°33'0 0.1
2014-Sep-01 01:18N 30°37' E 122°33'0 0.3
2014-Sep-01 00:24N 30°37' E 122°33'0 0.1
2014-Aug-31 23:30N 30°37' E 122°33'0 0.1
2014-Aug-31 22:18N 30°37' E 122°34'0 0.1
2014-Aug-31 21:24N 30°37' E 122°34'0 0.1
2014-Aug-31 20:30N 30°37' E 122°33'0 0.4
2014-Aug-31 19:30N 30°37' E 122°33'0 0.2
2014-Aug-31 18:30N 30°37' E 122°33'0 0.1
2014-Aug-31 17:30N 30°37' E 122°33'0 0.0
2014-Aug-31 16:18N 30°37' E 122°33'0 0.0
2014-Aug-31 15:30N 30°37' E 122°33'0 0.1
2014-Aug-31 14:30N 30°37' E 122°33'0 0.1
2014-Aug-31 13:24N 30°37' E 122°33'0 0.3
2014-Aug-31 12:30N 30°37' E 122°33'0 0.1
2014-Aug-31 11:30N 30°37' E 122°33'0 0.0
2014-Aug-31 10:30N 30°37' E 122°33'0 0.1
2014-Aug-31 09:30N 30°37' E 122°33'0 0.0
2014-Aug-31 08:24N 30°37' E 122°33'0 0.4
2014-Aug-31 07:30N 30°37' E 122°33'0 0.1
2014-Aug-31 06:30N 30°37' E 122°33'0 0.0
2014-Aug-31 05:24N 30°37' E 122°33'0 0.0
2014-Aug-31 04:30N 30°37' E 122°33'0 0.0
2014-Aug-31 03:30N 30°37' E 122°33'0 0.1
2014-Aug-31 02:24N 30°37' E 122°33'0 0.3
2014-Aug-31 01:30N 30°37' E 122°33'0 0.3
2014-Aug-31 00:30N 30°37' E 122°33'0 0.1
2014-Aug-30 23:24N 30°37' E 122°33'0 0.1
2014-Aug-30 22:30N 30°37' E 122°34'0 0.1
2014-Aug-30 21:24N 30°37' E 122°33'0 0.0
2014-Aug-30 20:06N 30°37' E 122°33'0 0.1
2014-Aug-30 19:30N 30°37' E 122°33'0 0.4
2014-Aug-30 18:30N 30°37' E 122°33'0 0.1
2014-Aug-30 17:30N 30°37' E 122°33'0 0.0
2014-Aug-30 16:30N 30°37' E 122°33'0 0.0
2014-Aug-30 15:30N 30°37' E 122°33'0 0.1
2014-Aug-30 14:30N 30°37' E 122°33'0 0.2
2014-Aug-30 13:30N 30°37' E 122°33'0 0.3
2014-Aug-30 12:30N 30°37' E 122°33'0 0.1
2014-Aug-30 11:30N 30°37' E 122°34'0 0.1
2014-Aug-30 10:30N 30°37' E 122°34'0 0.4
2014-Aug-30 09:33N 30°37' E 122°34'0 0.3
2014-Aug-30 08:33N 30°37' E 122°33'2 2.4
2014-Aug-30 07:33N 30°35' E 122°36'4 3.6
2014-Aug-30 06:33N 30°33' E 122°38'7 7.1
2014-Aug-30 05:33N 30°27' E 122°44'3 2.4
2014-Aug-30 04:28N 30°25' E 122°45'0 0.1
2014-Aug-30 03:29N 30°25' E 122°45'0 0.0
2014-Aug-30 01:28N 30°25' E 122°45'0 0.1
2014-Aug-30 00:22N 30°25' E 122°45'0 0.1
2014-Aug-29 23:17N 30°25' E 122°45'0 0.1
2014-Aug-29 22:29N 30°25' E 122°45'0 0.0
2014-Aug-29 21:16N 30°25' E 122°45'0 0.1
2014-Aug-29 20:29N 30°25' E 122°45'0 0.1
2014-Aug-29 19:28N 30°25' E 122°45'0 0.1
2014-Aug-29 18:29N 30°25' E 122°45'0 0.2
2014-Aug-29 17:29N 30°25' E 122°45'0 0.1
2014-Aug-29 16:22N 30°25' E 122°45'0 0.1
2014-Aug-29 15:28N 30°25' E 122°45'0 0.1
2014-Aug-29 14:16N 30°25' E 122°45'0 0.1
2014-Aug-29 13:28N 30°25' E 122°45'0 0.1
2014-Aug-29 12:23N 30°25' E 122°45'0 0.1
2014-Aug-29 11:29N 30°25' E 122°45'0 0.1
2014-Aug-29 10:28N 30°25' E 122°45'0 0.1
2014-Aug-29 09:22N 30°25' E 122°45'0 0.1
2014-Aug-29 08:29N 30°25' E 122°45'0 0.0
2014-Aug-29 07:04N 30°25' E 122°45'0 0.2
2014-Aug-29 06:28N 30°25' E 122°45'0 0.2
2014-Aug-29 05:29N 30°25' E 122°45'0 0.1
2014-Aug-29 04:22N 30°25' E 122°45'0 0.1
2014-Aug-29 03:22N 30°25' E 122°45'0 0.1
2014-Aug-29 02:22N 30°25' E 122°45'0 0.1
2014-Aug-29 01:22N 30°25' E 122°45'0 0.1
2014-Aug-29 00:29N 30°25' E 122°45'0 0.1
2014-Aug-28 23:29N 30°25' E 122°45'0 0.1
2014-Aug-28 22:29N 30°25' E 122°45'0 0.2
2014-Aug-28 21:32N 30°25' E 122°45'1 0.9
2014-Aug-28 20:23N 30°24' E 122°46'0 0.5
2014-Aug-28 19:26N 30°24' E 122°45'0 0.1
2014-Aug-28 18:32N 30°25' E 122°45'0 0.1
2014-Aug-28 17:32N 30°25' E 122°45'0 0.2
2014-Aug-28 16:28N 30°25' E 122°45'0 0.1
2014-Aug-28 15:32N 30°25' E 122°45'0 0.1
2014-Aug-28 14:32N 30°25' E 122°45'0 0.0
2014-Aug-28 13:32N 30°25' E 122°45'0 0.2
2014-Aug-28 12:32N 30°24' E 122°45'0 0.2
2014-Aug-28 11:28N 30°24' E 122°45'0 0.1
2014-Aug-28 10:32N 30°24' E 122°45'0 0.2
2014-Aug-28 09:28N 30°25' E 122°45'0 0.1
2014-Aug-28 08:29N 30°25' E 122°45'0 0.0
2014-Aug-28 07:29N 30°25' E 122°45'0 0.1
2014-Aug-28 06:28N 30°25' E 122°45'0 0.2
2014-Aug-28 05:29N 30°25' E 122°45'0 0.2
2014-Aug-28 04:17N 30°25' E 122°45'0 0.0
2014-Aug-28 03:10N 30°25' E 122°45'0 0.1
2014-Aug-28 02:29N 30°25' E 122°45'0 0.1
2014-Aug-28 01:29N 30°25' E 122°45'0 0.1
2014-Aug-28 00:28N 30°25' E 122°45'0 0.1
2014-Aug-27 23:28N 30°25' E 122°45'0 0.1
2014-Aug-27 22:23N 30°25' E 122°45'0 0.1
2014-Aug-27 21:23N 30°25' E 122°45'0 0.0
2014-Aug-27 20:28N 30°25' E 122°45'0 0.0
2014-Aug-27 19:29N 30°25' E 122°45'0 0.1
2014-Aug-27 18:29N 30°25' E 122°45'0 0.1
2014-Aug-27 17:23N 30°25' E 122°45'0 0.1
2014-Aug-27 15:28N 30°25' E 122°45'0 0.1
2014-Aug-27 14:23N 30°25' E 122°45'0 0.1
2014-Aug-27 13:28N 30°25' E 122°45'0 0.1
2014-Aug-27 12:29N 30°25' E 122°45'0 0.2
2014-Aug-27 11:22N 30°25' E 122°45'0 0.1
2014-Aug-27 10:23N 30°25' E 122°45'1 0.6
2014-Aug-27 09:22N 30°25' E 122°46'1 1.2
2014-Aug-27 08:34N 30°24' E 122°47'6 6.3
2014-Aug-27 07:33N 30°21' E 122°53'9 7.9
2014-Aug-27 06:27N 30°16' E 123°02'  
Track history (hours):
 
Tides and Currents Weather Stations Pressure Air Temp Water Temp Dewpoint Dewpoint Depression Visibility Wind Speed Wind Dir Waves Ship Positions

Frontier Oasis

Last reported at 2014-Sep-06 06:14 UTC. Time now 2014-Sep-21 06:11 UTC.
Position N 31°50' E 120°51'.
Warning: this ship's position is 14 days out of date.

Length 292 m; draft 10.7 m.

Type: Cargo ship. MMSI: 371910000.

Date/timePositionNaut miles runAvg speedWind from/ knotsBaromVisibWave heightAir tempDewpointWater temp
2014-Sep-06 06:14N 31°50' E 120°51'0 0.0
2014-Sep-06 05:32N 31°50' E 120°51'0 0.0
2014-Sep-06 04:32N 31°50' E 120°51'0 0.0
2014-Sep-06 03:26N 31°50' E 120°51'0 0.0
2014-Sep-06 02:32N 31°50' E 120°51'0 0.0
2014-Sep-06 01:32N 31°50' E 120°51'0 0.0
2014-Sep-06 00:32N 31°50' E 120°51'0 0.0
2014-Sep-05 23:32N 31°50' E 120°51'0 0.0
2014-Sep-05 22:29N 31°50' E 120°51'0 0.0
2014-Sep-05 21:32N 31°50' E 120°51'0 0.0
2014-Sep-05 20:32N 31°50' E 120°51'0 0.0
2014-Sep-05 19:33N 31°50' E 120°51'0 0.0
2014-Sep-05 18:26N 31°50' E 120°51'0 0.0
2014-Sep-05 17:29N 31°50' E 120°51'0 0.0
2014-Sep-05 16:32N 31°50' E 120°51'0 0.0
2014-Sep-05 15:32N 31°50' E 120°51'0 0.0
2014-Sep-05 14:29N 31°50' E 120°51'0 0.0
2014-Sep-05 13:33N 31°50' E 120°51'0 0.0
2014-Sep-05 12:32N 31°50' E 120°51'0 0.0
2014-Sep-05 11:29N 31°50' E 120°51'0 0.0
2014-Sep-05 10:32N 31°50' E 120°51'0 0.0
2014-Sep-05 09:32N 31°50' E 120°51'0 0.0
2014-Sep-05 08:32N 31°50' E 120°51'0 0.0
2014-Sep-05 07:32N 31°50' E 120°51'0 0.0
2014-Sep-05 06:33N 31°50' E 120°51'0 0.0
2014-Sep-05 05:29N 31°50' E 120°51'1 1.5
2014-Sep-05 04:33N 31°49' E 120°52'9 8.0
2014-Sep-05 03:26N 31°46' E 121°02'1011.0
2014-Sep-05 02:33N 31°41' E 121°11'1312.6
2014-Sep-05 01:32N 31°32' E 121°22'1010.4
2014-Sep-05 00:33N 31°25' E 121°31'1010.3
2014-Sep-04 23:33N 31°20' E 121°42'10 9.9
2014-Sep-04 22:33N 31°16' E 121°52'1110.2
2014-Sep-04 21:28N 31°14' E 122°05'10 8.5
2014-Sep-04 20:19N 31°09' E 122°14'18 1.2
2014-Sep-04 05:09N 31°12' E 122°35'0 0.0
2014-Sep-04 04:33N 31°12' E 122°35'7 0.5
2014-Sep-03 15:26N 31°05' E 122°34'1212.2
2014-Sep-03 14:29N 30°54' E 122°33'1011.2
2014-Sep-03 13:34N 30°44' E 122°37'8 7.7
2014-Sep-03 12:34N 30°37' E 122°32'7 6.9
2014-Sep-03 11:33N 30°40' E 122°25'0 0.0
2014-Sep-03 10:31N 30°40' E 122°25'0 0.0
2014-Sep-03 09:31N 30°40' E 122°25'0 0.0
2014-Sep-03 08:31N 30°40' E 122°25'0 0.0
2014-Sep-03 07:31N 30°40' E 122°25'0 0.0
2014-Sep-03 06:31N 30°40' E 122°25'0 0.0
2014-Sep-03 05:25N 30°40' E 122°25'0 0.1
2014-Sep-03 04:31N 30°40' E 122°25'0 0.0
2014-Sep-03 03:31N 30°40' E 122°25'0 0.0
2014-Sep-03 02:31N 30°40' E 122°25'0 0.0
2014-Sep-03 01:25N 30°40' E 122°25'0 0.0
2014-Sep-03 00:31N 30°40' E 122°25'0 0.0
2014-Sep-02 23:31N 30°40' E 122°25'0 0.0
2014-Sep-02 22:25N 30°40' E 122°25'0 0.0
2014-Sep-02 21:19N 30°40' E 122°25'0 0.0
2014-Sep-02 20:31N 30°40' E 122°25'0 0.0
2014-Sep-02 19:31N 30°40' E 122°25'0 0.0
2014-Sep-02 18:31N 30°40' E 122°25'0 0.0
2014-Sep-02 17:07N 30°40' E 122°25'0 0.0
2014-Sep-02 16:31N 30°40' E 122°25'0 0.0
2014-Sep-02 15:31N 30°40' E 122°25'0 0.0
2014-Sep-02 14:31N 30°40' E 122°25'0 0.0
2014-Sep-02 13:31N 30°40' E 122°25'0 0.0
2014-Sep-02 12:07N 30°40' E 122°25'0 0.0
2014-Sep-02 11:19N 30°40' E 122°25'0 0.0
2014-Sep-02 10:19N 30°40' E 122°25'0 0.0
2014-Sep-02 09:19N 30°40' E 122°25'0 0.0
2014-Sep-02 08:25N 30°40' E 122°25'0 0.0
2014-Sep-02 07:31N 30°40' E 122°25'0 0.0
2014-Sep-02 06:25N 30°40' E 122°25'0 0.0
2014-Sep-02 05:31N 30°40' E 122°25'0 0.0
2014-Sep-02 04:31N 30°40' E 122°25'0 0.0
2014-Sep-02 03:25N 30°40' E 122°25'0 0.0
2014-Sep-02 02:31N 30°40' E 122°25'0 0.0
2014-Sep-02 01:25N 30°40' E 122°25'0 0.0
2014-Sep-02 00:19N 30°40' E 122°25'0 0.0
2014-Sep-01 23:19N 30°40' E 122°25'0 0.0
2014-Sep-01 22:13N 30°40' E 122°25'0 0.0
2014-Sep-01 21:25N 30°40' E 122°25'0 0.0
2014-Sep-01 20:31N 30°40' E 122°25'0 0.0
2014-Sep-01 19:31N 30°40' E 122°25'0 0.0
2014-Sep-01 18:25N 30°40' E 122°25'0 0.0
2014-Sep-01 17:31N 30°40' E 122°25'0 0.0
2014-Sep-01 16:31N 30°40' E 122°25'0 0.0
2014-Sep-01 15:31N 30°40' E 122°25'0 0.0
2014-Sep-01 14:25N 30°40' E 122°25'0 0.0
2014-Sep-01 13:25N 30°40' E 122°25'0 0.0
2014-Sep-01 12:31N 30°40' E 122°25'0 0.0
2014-Sep-01 11:31N 30°40' E 122°25'0 0.0
2014-Sep-01 10:25N 30°40' E 122°25'0 0.0
2014-Sep-01 09:25N 30°40' E 122°25'0 0.0
2014-Sep-01 08:33N 30°40' E 122°25'1 0.9
2014-Sep-01 07:32N 30°40' E 122°26'5 4.6
2014-Sep-01 06:33N 30°37' E 122°30'2 2.2
2014-Sep-01 05:30N 30°37' E 122°33'0 0.1
2014-Sep-01 04:30N 30°37' E 122°33'0 0.1
2014-Sep-01 03:24N 30°37' E 122°33'0 0.1
2014-Sep-01 02:30N 30°37' E 122°33'0 0.1
2014-Sep-01 01:18N 30°37' E 122°33'0 0.3
2014-Sep-01 00:24N 30°37' E 122°33'0 0.1
2014-Aug-31 23:30N 30°37' E 122°33'0 0.1
2014-Aug-31 22:18N 30°37' E 122°34'0 0.1
2014-Aug-31 21:24N 30°37' E 122°34'0 0.1
2014-Aug-31 20:30N 30°37' E 122°33'0 0.4
2014-Aug-31 19:30N 30°37' E 122°33'0 0.2
2014-Aug-31 18:30N 30°37' E 122°33'0 0.1
2014-Aug-31 17:30N 30°37' E 122°33'0 0.0
2014-Aug-31 16:18N 30°37' E 122°33'0 0.0
2014-Aug-31 15:30N 30°37' E 122°33'0 0.1
2014-Aug-31 14:30N 30°37' E 122°33'0 0.1
2014-Aug-31 13:24N 30°37' E 122°33'0 0.3
2014-Aug-31 12:30N 30°37' E 122°33'0 0.1
2014-Aug-31 11:30N 30°37' E 122°33'0 0.0
2014-Aug-31 10:30N 30°37' E 122°33'0 0.1
2014-Aug-31 09:30N 30°37' E 122°33'0 0.0
2014-Aug-31 08:24N 30°37' E 122°33'0 0.4
2014-Aug-31 07:30N 30°37' E 122°33'0 0.1
2014-Aug-31 06:30N 30°37' E 122°33'0 0.0
2014-Aug-31 05:24N 30°37' E 122°33'0 0.0
2014-Aug-31 04:30N 30°37' E 122°33'0 0.0
2014-Aug-31 03:30N 30°37' E 122°33'0 0.1
2014-Aug-31 02:24N 30°37' E 122°33'0 0.3
2014-Aug-31 01:30N 30°37' E 122°33'0 0.3
2014-Aug-31 00:30N 30°37' E 122°33'0 0.1
2014-Aug-30 23:24N 30°37' E 122°33'0 0.1
2014-Aug-30 22:30N 30°37' E 122°34'0 0.1
2014-Aug-30 21:24N 30°37' E 122°33'0 0.0
2014-Aug-30 20:06N 30°37' E 122°33'0 0.1
2014-Aug-30 19:30N 30°37' E 122°33'0 0.4
2014-Aug-30 18:30N 30°37' E 122°33'0 0.1
2014-Aug-30 17:30N 30°37' E 122°33'0 0.0
2014-Aug-30 16:30N 30°37' E 122°33'0 0.0
2014-Aug-30 15:30N 30°37' E 122°33'0 0.1
2014-Aug-30 14:30N 30°37' E 122°33'0 0.2
2014-Aug-30 13:30N 30°37' E 122°33'0 0.3
2014-Aug-30 12:30N 30°37' E 122°33'0 0.1
2014-Aug-30 11:30N 30°37' E 122°34'0 0.1
2014-Aug-30 10:30N 30°37' E 122°34'0 0.4
2014-Aug-30 09:33N 30°37' E 122°34'0 0.3
2014-Aug-30 08:33N 30°37' E 122°33'2 2.4
2014-Aug-30 07:33N 30°35' E 122°36'4 3.6
2014-Aug-30 06:33N 30°33' E 122°38'7 7.1
2014-Aug-30 05:33N 30°27' E 122°44'3 2.4
2014-Aug-30 04:28N 30°25' E 122°45'0 0.1
2014-Aug-30 03:29N 30°25' E 122°45'0 0.0
2014-Aug-30 01:28N 30°25' E 122°45'0 0.1
2014-Aug-30 00:22N 30°25' E 122°45'0 0.1
2014-Aug-29 23:17N 30°25' E 122°45'0 0.1
2014-Aug-29 22:29N 30°25' E 122°45'0 0.0
2014-Aug-29 21:16N 30°25' E 122°45'0 0.1
2014-Aug-29 20:29N 30°25' E 122°45'0 0.1
2014-Aug-29 19:28N 30°25' E 122°45'0 0.1
2014-Aug-29 18:29N 30°25' E 122°45'0 0.2
2014-Aug-29 17:29N 30°25' E 122°45'0 0.1
2014-Aug-29 16:22N 30°25' E 122°45'0 0.1
2014-Aug-29 15:28N 30°25' E 122°45'0 0.1
2014-Aug-29 14:16N 30°25' E 122°45'0 0.1
2014-Aug-29 13:28N 30°25' E 122°45'0 0.1
2014-Aug-29 12:23N 30°25' E 122°45'0 0.1
2014-Aug-29 11:29N 30°25' E 122°45'0 0.1
2014-Aug-29 10:28N 30°25' E 122°45'0 0.1
2014-Aug-29 09:22N 30°25' E 122°45'0 0.1
2014-Aug-29 08:29N 30°25' E 122°45'0 0.0
2014-Aug-29 07:04N 30°25' E 122°45'0 0.2
2014-Aug-29 06:28N 30°25' E 122°45'0 0.2
2014-Aug-29 05:29N 30°25' E 122°45'0 0.1
2014-Aug-29 04:22N 30°25' E 122°45'0 0.1
2014-Aug-29 03:22N 30°25' E 122°45'0 0.1
2014-Aug-29 02:22N 30°25' E 122°45'0 0.1
2014-Aug-29 01:22N 30°25' E 122°45'0 0.1
2014-Aug-29 00:29N 30°25' E 122°45'0 0.1
2014-Aug-28 23:29N 30°25' E 122°45'0 0.1
2014-Aug-28 22:29N 30°25' E 122°45'0 0.2
2014-Aug-28 21:32N 30°25' E 122°45'1 0.9
2014-Aug-28 20:23N 30°24' E 122°46'0 0.5
2014-Aug-28 19:26N 30°24' E 122°45'0 0.1
2014-Aug-28 18:32N 30°25' E 122°45'0 0.1
2014-Aug-28 17:32N 30°25' E 122°45'0 0.2
2014-Aug-28 16:28N 30°25' E 122°45'0 0.1
2014-Aug-28 15:32N 30°25' E 122°45'0 0.1
2014-Aug-28 14:32N 30°25' E 122°45'0 0.0
2014-Aug-28 13:32N 30°25' E 122°45'0 0.2
2014-Aug-28 12:32N 30°24' E 122°45'0 0.2
2014-Aug-28 11:28N 30°24' E 122°45'0 0.1
2014-Aug-28 10:32N 30°24' E 122°45'0 0.2
2014-Aug-28 09:28N 30°25' E 122°45'0 0.1
2014-Aug-28 08:29N 30°25' E 122°45'0 0.0
2014-Aug-28 07:29N 30°25' E 122°45'0 0.1
2014-Aug-28 06:28N 30°25' E 122°45'0 0.2
2014-Aug-28 05:29N 30°25' E 122°45'0 0.2
2014-Aug-28 04:17N 30°25' E 122°45'0 0.0
2014-Aug-28 03:10N 30°25' E 122°45'0 0.1
2014-Aug-28 02:29N 30°25' E 122°45'0 0.1
2014-Aug-28 01:29N 30°25' E 122°45'0 0.1
2014-Aug-28 00:28N 30°25' E 122°45'0 0.1
2014-Aug-27 23:28N 30°25' E 122°45'0 0.1
2014-Aug-27 22:23N 30°25' E 122°45'0 0.1
2014-Aug-27 21:23N 30°25' E 122°45'0 0.0
2014-Aug-27 20:28N 30°25' E 122°45'0 0.0
2014-Aug-27 19:29N 30°25' E 122°45'0 0.1
2014-Aug-27 18:29N 30°25' E 122°45'0 0.1
2014-Aug-27 17:23N 30°25' E 122°45'0 0.1
2014-Aug-27 15:28N 30°25' E 122°45'0 0.1
2014-Aug-27 14:23N 30°25' E 122°45'0 0.1
2014-Aug-27 13:28N 30°25' E 122°45'0 0.1
2014-Aug-27 12:29N 30°25' E 122°45'0 0.2
2014-Aug-27 11:22N 30°25' E 122°45'0 0.1
2014-Aug-27 10:23N 30°25' E 122°45'1 0.6
2014-Aug-27 09:22N 30°25' E 122°46'1 1.2
2014-Aug-27 08:34N 30°24' E 122°47'6 6.3
2014-Aug-27 07:33N 30°21' E 122°53'9 7.9
2014-Aug-27 06:27N 30°16' E 123°02'  

Dump ship's entire track history